Glenwood, MN

2:05 PM CST on January 20, 2017 (GMT -0600)
Glenwood Municipal

Weather History for KGHW - November, 2013

Change the Weather History Date:

Thursday, November 21, 2013

  Actual Average Record
Temperature  
Mean Temperature 21 °F -  
Max Temperature 28 °F 36 °F 60 °F (1990)
Min Temperature 14 °F 20 °F -3 °F (1964)
Degree Days  
Heating Degree Days 44    
Moisture  
Dew Point 15 °F    
Average Humidity 80    
Maximum Humidity 100    
Minimum Humidity 64    
Precipitation  
Precipitation 0.00 in - - ()
Sea Level Pressure  
Sea Level Pressure 30.34 in    
Wind  
Wind Speed 17 mph (NW)    
Max Wind Speed 24 mph    
Max Gust Speed 31 mph    
Visibility 9 miles    
Events Snow    
Averages and records for this station are not official NWS values.
T = Trace of Precipitation, MM = Missing Value Source: NWS Daily Summary

Daily Weather History Graph

Daily Weather History Graph

Search for Another Location

Airport or City:

Trip Planner

Search our weather history database for the weather conditions in past years. The results will help you decide how hot, cold, wet, or windy it might be!

Date:

Astronomy

Nov. 21, 2013 Rise Set
Actual Time 7:29 AM CST 4:44 PM CST
Civil Twilight 6:56 AM CST 5:17 PM CST
Nautical Twilight 6:20 AM CST 5:54 PM CST
Astronomical Twilight 5:44 AM CST 6:29 PM CST
Moon 8:24 PM CST (11/21) 10:35 AM CST (11/21)
Length of Visible Light 10h 21m
Length of Day
9h 15m
Waning Gibbous, 85% of the Moon is Illuminated
Nov 21
Waning Gibbous
Nov 25
Last Quarter
Dec 2
New
Dec 9
First Quarter
Dec 17
Full

Hourly Weather History & Observations

Time (CST) Temp. Windchill Dew Point Humidity Pressure Visibility Wind Dir Wind Speed Gust Speed Precip Events Conditions
12:13 AM 28.4 °F 17.5 °F 26.6 °F 93% 30.04 in 7.0 mi WNW 13.8 mph - N/A   Overcast
12:33 AM 26.6 °F 13.4 °F 24.8 °F 93% 30.04 in 7.0 mi WNW 18.4 mph - N/A   Overcast
12:53 AM 26.6 °F 13.8 °F 24.8 °F 93% 30.04 in 7.0 mi NW 17.3 mph - N/A   Overcast
1:13 AM 26.6 °F 15.7 °F 24.8 °F 93% 30.05 in 7.0 mi NW 12.7 mph - N/A   Overcast
1:34 AM 24.8 °F 12.9 °F 24.8 °F 100% 30.06 in 5.0 mi NW 13.8 mph - N/A   Overcast
1:53 AM 24.8 °F 10.3 °F 24.8 °F 100% 30.07 in 5.0 mi WNW 20.7 mph - N/A   Overcast
2:13 AM 24.8 °F 10.7 °F 24.8 °F 100% 30.08 in 7.0 mi NW 19.6 mph 27.6 mph N/A   Overcast
2:33 AM 24.8 °F 11.1 °F 23.0 °F 93% 30.10 in 4.0 mi WNW 18.4 mph 27.6 mph N/A   Overcast
2:53 AM 23.0 °F 8.7 °F 23.0 °F 100% 30.11 in 1.8 mi NW 18.4 mph 26.5 mph N/A   Overcast
3:14 AM 23.0 °F 8.3 °F 21.2 °F 93% 30.12 in 1.8 mi WNW 19.6 mph 26.5 mph N/A   Overcast
3:33 AM 21.2 °F 6.0 °F 21.2 °F 100% 30.13 in 7.0 mi NW 19.6 mph 26.5 mph N/A   Overcast
3:53 AM 21.2 °F 6.0 °F 19.4 °F 93% 30.14 in 7.0 mi WNW 19.6 mph 27.6 mph N/A   Overcast
4:14 AM 21.2 °F 6.0 °F 19.4 °F 93% 30.14 in 10.0 mi NW 19.6 mph 28.8 mph N/A   Overcast
4:33 AM 21.2 °F 5.2 °F 19.4 °F 93% 30.16 in 10.0 mi NW 21.9 mph 27.6 mph N/A   Overcast
4:53 AM 19.4 °F 2.1 °F 19.4 °F 100% 30.16 in 10.0 mi NW 24.2 mph 31.1 mph N/A   Overcast
5:13 AM 19.4 °F 3.6 °F 17.6 °F 93% 30.18 in 10.0 mi WNW 19.6 mph - N/A   Overcast
5:33 AM 19.4 °F 3.2 °F 17.6 °F 93% 30.18 in 10.0 mi NW 20.7 mph 25.3 mph N/A   Overcast
5:54 AM 19.4 °F 3.6 °F 15.8 °F 86% 30.20 in 10.0 mi NNW 19.6 mph 26.5 mph N/A   Overcast
6:13 AM 19.4 °F 4.1 °F 15.8 °F 86% 30.21 in 10.0 mi NW 18.4 mph 23.0 mph N/A   Overcast
6:33 AM 19.4 °F 3.6 °F 15.8 °F 86% 30.23 in 10.0 mi NW 19.6 mph 24.2 mph N/A   Overcast
6:54 AM 19.4 °F 4.5 °F 15.8 °F 86% 30.24 in 10.0 mi NW 17.3 mph 26.5 mph N/A   Overcast
7:13 AM 19.4 °F 3.6 °F 14.0 °F 80% 30.25 in 10.0 mi NNW 19.6 mph 23.0 mph N/A   Overcast
7:33 AM 19.4 °F 5.5 °F 14.0 °F 80% 30.27 in 10.0 mi NNW 15.0 mph - N/A   Overcast
7:53 AM 19.4 °F 5.0 °F 14.0 °F 80% 30.27 in 10.0 mi NNW 16.1 mph 23.0 mph N/A   Overcast
8:13 AM 19.4 °F 4.5 °F 14.0 °F 80% 30.29 in 10.0 mi NNW 17.3 mph 26.5 mph N/A   Overcast
8:34 AM 19.4 °F 4.5 °F 14.0 °F 80% 30.30 in 10.0 mi NW 17.3 mph 24.2 mph N/A   Mostly Cloudy
8:53 AM 19.4 °F 5.0 °F 14.0 °F 80% 30.31 in 10.0 mi NW 16.1 mph 21.9 mph N/A   Mostly Cloudy
9:13 AM 19.4 °F 4.5 °F 14.0 °F 80% 30.31 in 10.0 mi NNW 17.3 mph 23.0 mph N/A   Scattered Clouds
9:34 AM 19.4 °F 5.0 °F 15.8 °F 86% 30.32 in 3.0 mi NNW 16.1 mph 24.2 mph N/A Snow Light Snow
9:53 AM 19.4 °F 2.8 °F 15.8 °F 86% 30.33 in 2.5 mi NNW 21.9 mph 28.8 mph N/A Snow Light Snow
10:13 AM 19.4 °F 4.5 °F 15.8 °F 86% 30.33 in 4.0 mi NNW 17.3 mph 27.6 mph N/A Snow Light Snow
10:34 AM 19.4 °F 4.1 °F 15.8 °F 86% 30.34 in 3.0 mi NNW 18.4 mph 25.3 mph N/A Snow Light Snow
10:53 AM 19.4 °F 4.1 °F 15.8 °F 86% 30.33 in 4.0 mi NNW 18.4 mph 23.0 mph N/A Snow Light Snow
11:13 AM 21.2 °F 6.0 °F 15.8 °F 80% 30.34 in 10.0 mi NNW 19.6 mph 26.5 mph N/A   Clear
11:33 AM 21.2 °F 6.0 °F 14.0 °F 74% 30.34 in 10.0 mi NNW 19.6 mph 26.5 mph N/A   Clear
11:53 AM 21.2 °F 6.0 °F 14.0 °F 74% 30.35 in 10.0 mi NNW 19.6 mph 26.5 mph N/A   Clear
12:13 PM 21.2 °F 7.8 °F 14.0 °F 74% 30.36 in 7.0 mi North 15.0 mph 24.2 mph N/A   Clear
12:33 PM 21.2 °F 7.8 °F 14.0 °F 74% 30.37 in 10.0 mi NNW 15.0 mph - N/A   Clear
12:53 PM 23.0 °F 10.1 °F 14.0 °F 68% 30.37 in 10.0 mi NNW 15.0 mph 20.7 mph N/A   Clear
1:14 PM 24.8 °F 11.5 °F 14.0 °F 64% 30.37 in 10.0 mi NW 17.3 mph 21.9 mph N/A   Scattered Clouds
1:33 PM 24.8 °F 12.9 °F 15.8 °F 69% 30.37 in 10.0 mi NNW 13.8 mph 19.6 mph N/A   Scattered Clouds
1:53 PM 23.0 °F 9.6 °F 14.0 °F 68% 30.38 in 10.0 mi NNW 16.1 mph 23.0 mph N/A   Scattered Clouds
2:14 PM 23.0 °F 10.1 °F 14.0 °F 68% 30.39 in 10.0 mi NNW 15.0 mph - N/A   Scattered Clouds
2:33 PM 21.2 °F 8.3 °F 14.0 °F 74% 30.39 in 10.0 mi NW 13.8 mph - N/A   Scattered Clouds
2:54 PM 21.2 °F 7.8 °F 12.2 °F 68% 30.40 in 10.0 mi NW 15.0 mph 19.6 mph N/A   Scattered Clouds
3:13 PM 21.2 °F 6.8 °F 12.2 °F 68% 30.40 in 10.0 mi NW 17.3 mph 21.9 mph N/A   Mostly Cloudy
3:33 PM 21.2 °F 7.8 °F 12.2 °F 68% 30.42 in 10.0 mi NNW 15.0 mph 19.6 mph N/A   Mostly Cloudy
3:54 PM 21.2 °F 8.3 °F 12.2 °F 68% 30.43 in 10.0 mi NNW 13.8 mph - N/A   Scattered Clouds
4:13 PM 21.2 °F 8.3 °F 12.2 °F 68% 30.44 in 10.0 mi NW 13.8 mph 20.7 mph N/A   Scattered Clouds
4:33 PM 19.4 °F 6.0 °F 12.2 °F 74% 30.45 in 10.0 mi NW 13.8 mph - N/A   Mostly Cloudy
4:53 PM 19.4 °F 4.5 °F 12.2 °F 74% 30.45 in 10.0 mi NW 17.3 mph - N/A   Overcast
5:13 PM 19.4 °F 5.5 °F 10.4 °F 68% 30.46 in 10.0 mi NW 15.0 mph - N/A   Overcast
5:33 PM 19.4 °F 5.0 °F 10.4 °F 68% 30.46 in 10.0 mi NW 16.1 mph 20.7 mph N/A   Overcast
5:53 PM 17.6 °F 3.2 °F 10.4 °F 73% 30.47 in 10.0 mi NW 15.0 mph 23.0 mph N/A   Overcast
6:14 PM 17.6 °F 3.7 °F 10.4 °F 73% 30.48 in 10.0 mi NW 13.8 mph - N/A   Overcast
6:33 PM 17.6 °F 3.2 °F 10.4 °F 73% 30.49 in 10.0 mi NW 15.0 mph - N/A   Mostly Cloudy
6:53 PM 17.6 °F 4.3 °F 10.4 °F 73% 30.50 in 10.0 mi NW 12.7 mph - N/A   Overcast
7:13 PM 17.6 °F 1.7 °F 10.4 °F 73% 30.50 in 10.0 mi NNW 18.4 mph 23.0 mph N/A   Mostly Cloudy
7:33 PM 17.6 °F 2.7 °F 10.4 °F 73% 30.50 in 10.0 mi NNW 16.1 mph - N/A   Scattered Clouds
7:54 PM 17.6 °F 3.7 °F 10.4 °F 73% 30.51 in 10.0 mi NNW 13.8 mph 18.4 mph N/A   Clear
8:13 PM 17.6 °F 4.3 °F 10.4 °F 73% 30.52 in 10.0 mi NW 12.7 mph - N/A   Clear
8:33 PM 17.6 °F 3.7 °F 10.4 °F 73% 30.51 in 10.0 mi NNW 13.8 mph 20.7 mph N/A   Clear
8:54 PM 17.6 °F 3.2 °F 8.6 °F 68% 30.52 in 10.0 mi NNW 15.0 mph - N/A   Scattered Clouds
9:13 PM 17.6 °F 6.4 °F 8.6 °F 68% 30.52 in 10.0 mi NNW 9.2 mph - N/A   Clear
9:33 PM 15.8 °F 2.7 °F 10.4 °F 79% 30.53 in 10.0 mi NNW 11.5 mph - N/A   Clear
9:54 PM 15.8 °F 2.7 °F 10.4 °F 79% 30.54 in 10.0 mi NW 11.5 mph - N/A   Clear
10:13 PM 15.8 °F 1.4 °F 8.6 °F 73% 30.54 in 10.0 mi NW 13.8 mph 18.4 mph N/A   Clear
10:34 PM 15.8 °F 2.7 °F 8.6 °F 73% 30.55 in 10.0 mi NW 11.5 mph - N/A   Clear
10:53 PM 15.8 °F 3.4 °F 8.6 °F 73% 30.55 in 10.0 mi NW 10.4 mph - N/A   Clear
11:13 PM 15.8 °F 4.2 °F 10.4 °F 79% 30.55 in 10.0 mi NW 9.2 mph - N/A   Clear
11:34 PM 14.0 °F 2.9 °F 10.4 °F 86% 30.55 in 10.0 mi NW 8.1 mph - N/A   Clear
11:53 PM 14.0 °F 2.0 °F 10.4 °F 86% 30.55 in 10.0 mi WNW 9.2 mph - N/A   Clear